Time;durP1;ratioP1;P1;durP2;ratioP2;P2;SDS_P1;SDS_P2;PMS_P1;PMS_P2;Temp;Humidity;BMP_temperature;BMP_pressure;BME280_temperature;BME280_humidity;BME280_pressure;Samples;Min_cycle;Max_cycle;Signal;HPM_P1;HPM_P2
2021/09/11 00:00:18;;;;;;;;;;;19.00;92.30;;;;;;5091443;28;19969;-77
2021/09/11 00:02:44;;;;;;;;;;;18.90;92.30;;;;;;5110176;28;19907;-80
2021/09/11 00:05:10;;;;;;;;;;;18.90;92.30;;;;;;5091651;28;19912;-78
2021/09/11 00:07:36;;;;;;;;;;;18.90;92.30;;;;;;5109819;28;20362;-78
2021/09/11 00:10:02;;;;;;;;;;;18.90;92.30;;;;;;5091280;28;19914;-78
2021/09/11 00:12:27;;;;;;;;;;;18.90;92.30;;;;;;5091207;28;19904;-77
2021/09/11 00:14:53;;;;;;;;;;;18.90;92.30;;;;;;5109430;28;19918;-78
2021/09/11 00:17:18;;;;;;;;;;;18.80;92.30;;;;;;5074420;28;20019;-77
2021/09/11 00:19:44;;;;;;;;;;;18.80;92.30;;;;;;5091505;28;19908;-78
2021/09/11 00:22:09;;;;;;;;;;;18.80;92.30;;;;;;5091168;28;19915;-77
2021/09/11 00:24:35;;;;;;;;;;;18.80;92.30;;;;;;5109467;28;19959;-79
2021/09/11 00:27:01;;;;;;;;;;;18.80;92.30;;;;;;5074392;28;19912;-77
2021/09/11 00:29:26;;;;;;;;;;;18.80;92.30;;;;;;5091125;28;19907;-76
2021/09/11 00:31:52;;;;;;;;;;;18.80;92.30;;;;;;5091157;28;19923;-77
2021/09/11 00:34:18;;;;;;;;;;;18.80;92.30;;;;;;5109238;28;19960;-78
2021/09/11 00:36:43;;;;;;;;;;;18.80;92.30;;;;;;5090947;28;19908;-78
2021/09/11 00:39:09;;;;;;;;;;;18.80;92.30;;;;;;5090935;28;19992;-80
2021/09/11 00:41:34;;;;;;;;;;;18.80;92.30;;;;;;5108828;28;19914;-78
2021/09/11 00:44:00;;;;;;;;;;;18.70;92.20;;;;;;5090623;28;19920;-77
2021/09/11 00:46:25;;;;;;;;;;;18.70;92.20;;;;;;5090461;28;19984;-78
2021/09/11 00:48:51;;;;;;;;;;;18.70;92.20;;;;;;5109045;28;19953;-77
2021/09/11 00:51:17;;;;;;;;;;;18.70;92.20;;;;;;5090394;28;19950;-77
2021/09/11 00:53:42;;;;;;;;;;;18.70;92.20;;;;;;5108860;28;19922;-78
2021/09/11 00:56:08;;;;;;;;;;;18.60;92.20;;;;;;5090737;28;19961;-76
2021/09/11 00:58:34;;;;;;;;;;;18.60;92.20;;;;;;5108682;28;20260;-77
2021/09/11 01:00:59;;;;;;;;;;;18.60;92.20;;;;;;5108902;28;20299;-78
2021/09/11 01:03:25;;;;;;;;;;;18.60;92.20;;;;;;5108822;28;19922;-76
2021/09/11 01:05:51;;;;;;;;;;;18.60;92.20;;;;;;5090515;28;19908;-78
2021/09/11 01:08:16;;;;;;;;;;;18.60;92.20;;;;;;5090700;28;20029;-76
2021/09/11 01:10:42;;;;;;;;;;;18.60;92.20;;;;;;5090392;28;19939;-78
2021/09/11 01:13:11;;;;;;;;;;;18.50;92.20;;;;;;5090452;28;19912;-77
2021/09/11 01:15:39;;;;;;;;;;;18.50;92.20;;;;;;5108660;28;19957;-78
2021/09/11 01:18:05;;;;;;;;;;;18.50;92.20;;;;;;5108701;28;19908;-76
2021/09/11 01:20:31;;;;;;;;;;;18.50;92.20;;;;;;5090354;28;20290;-76
2021/09/11 01:22:57;;;;;;;;;;;18.50;92.20;;;;;;5090392;28;19919;-80
2021/09/11 01:25:23;;;;;;;;;;;18.50;92.20;;;;;;5108563;28;19959;-76
2021/09/11 01:27:49;;;;;;;;;;;18.50;92.20;;;;;;5090229;28;19925;-77
2021/09/11 01:30:16;;;;;;;;;;;18.50;92.20;;;;;;5073264;28;19915;-78
2021/09/11 01:32:41;;;;;;;;;;;18.50;92.20;;;;;;5108325;28;19908;-77
2021/09/11 01:35:07;;;;;;;;;;;18.50;92.20;;;;;;5108438;28;19903;-79
2021/09/11 01:37:33;;;;;;;;;;;18.50;92.20;;;;;;5073281;28;20019;-76
2021/09/11 01:39:59;;;;;;;;;;;18.40;92.30;;;;;;5108382;28;19971;-77
2021/09/11 01:42:26;;;;;;;;;;;18.40;92.30;;;;;;5108222;28;19912;-78
2021/09/11 01:45:11;;;;;;;;;;;18.30;92.40;;;;;;5090229;28;19914;-76
2021/09/11 01:47:37;;;;;;;;;;;18.20;92.50;;;;;;5108474;28;20285;-78
2021/09/11 01:50:04;;;;;;;;;;;18.20;92.50;;;;;;5089701;28;19972;-77
2021/09/11 01:52:30;;;;;;;;;;;18.20;92.50;;;;;;5108254;28;19954;-77
2021/09/11 01:54:55;;;;;;;;;;;18.20;92.60;;;;;;5089866;28;19980;-76
2021/09/11 01:57:21;;;;;;;;;;;18.20;92.60;;;;;;5073901;28;19912;-76
2021/09/11 01:59:47;;;;;;;;;;;18.10;92.70;;;;;;5112439;28;19957;-75
2021/09/11 02:02:12;;;;;;;;;;;18.10;92.70;;;;;;5112266;28;19911;-77
2021/09/11 02:04:38;;;;;;;;;;;18.10;92.70;;;;;;5112216;28;19908;-80
2021/09/11 02:07:04;;;;;;;;;;;18.10;92.80;;;;;;5112147;28;19903;-77
2021/09/11 02:09:30;;;;;;;;;;;18.10;92.90;;;;;;5112501;28;19910;-77
2021/09/11 02:11:56;;;;;;;;;;;18.10;93.00;;;;;;5112078;28;19903;-80
2021/09/11 02:14:22;;;;;;;;;;;18.10;93.00;;;;;;5112074;28;19908;-79
2021/09/11 02:16:47;;;;;;;;;;;18.00;93.10;;;;;;5093794;28;20415;-79
2021/09/11 02:19:13;;;;;;;;;;;18.00;93.10;;;;;;5111962;28;19915;-78
2021/09/11 02:21:39;;;;;;;;;;;18.10;93.20;;;;;;5111867;28;20346;-79
2021/09/11 02:24:04;;;;;;;;;;;18.10;93.20;;;;;;5093622;28;20005;-78
2021/09/11 02:26:30;;;;;;;;;;;18.10;93.20;;;;;;5076769;28;20197;-77
2021/09/11 02:28:56;;;;;;;;;;;18.00;93.20;;;;;;5111905;28;19904;-78
2021/09/11 02:31:21;;;;;;;;;;;18.00;93.20;;;;;;5093417;28;19918;-76
2021/09/11 02:33:49;;;;;;;;;;;18.00;93.20;;;;;;5111533;28;19920;-76
2021/09/11 02:36:15;;;;;;;;;;;18.00;93.20;;;;;;5093237;28;19911;-76
2021/09/11 02:38:41;;;;;;;;;;;18.10;93.20;;;;;;5111664;28;19911;-76
2021/09/11 02:41:07;;;;;;;;;;;18.00;93.20;;;;;;5111714;28;19904;-78
2021/09/11 02:43:32;;;;;;;;;;;18.10;93.10;;;;;;5093257;28;20237;-78
2021/09/11 02:45:58;;;;;;;;;;;18.10;93.10;;;;;;5111567;28;19911;-77
2021/09/11 02:48:23;;;;;;;;;;;18.10;93.10;;;;;;5111363;28;19907;-77
2021/09/11 02:50:49;;;;;;;;;;;18.10;93.10;;;;;;5092887;28;19953;-77
2021/09/11 02:53:15;;;;;;;;;;;18.20;93.10;;;;;;5093078;28;19920;-77
2021/09/11 02:55:40;;;;;;;;;;;18.10;93.10;;;;;;5092987;28;19911;-77
2021/09/11 02:58:06;;;;;;;;;;;18.20;93.10;;;;;;5111418;28;19910;-78
2021/09/11 03:00:31;;;;;;;;;;;18.10;93.00;;;;;;5111175;28;19908;-77
2021/09/11 03:02:57;;;;;;;;;;;18.10;93.10;;;;;;5111066;28;20423;-78
2021/09/11 03:05:22;;;;;;;;;;;18.10;93.10;;;;;;5092878;28;20364;-77
2021/09/11 03:07:48;;;;;;;;;;;18.10;93.10;;;;;;5110890;28;19904;-78
2021/09/11 03:10:13;;;;;;;;;;;18.10;93.10;;;;;;5075469;28;19908;-77
2021/09/11 03:12:39;;;;;;;;;;;18.10;93.10;;;;;;5110900;28;19908;-78
2021/09/11 03:15:05;;;;;;;;;;;18.10;93.10;;;;;;5092473;28;19955;-77
2021/09/11 03:17:30;;;;;;;;;;;18.10;93.20;;;;;;5092551;28;19908;-77
2021/09/11 03:19:56;;;;;;;;;;;18.00;93.20;;;;;;5110942;28;19915;-76
2021/09/11 03:22:22;;;;;;;;;;;18.00;93.20;;;;;;5092361;28;19908;-78
2021/09/11 03:24:47;;;;;;;;;;;18.10;93.20;;;;;;5110687;28;19957;-78
2021/09/11 03:27:13;;;;;;;;;;;18.10;93.20;;;;;;5110516;28;20374;-76
2021/09/11 03:29:39;;;;;;;;;;;18.10;93.20;;;;;;5092380;28;20393;-75
2021/09/11 03:32:05;;;;;;;;;;;18.10;93.20;;;;;;5110487;28;20263;-76
2021/09/11 03:34:34;;;;;;;;;;;18.10;93.10;;;;;;5110412;28;19965;-77
2021/09/11 03:37:00;;;;;;;;;;;18.00;93.10;;;;;;5092168;28;19910;-77
2021/09/11 03:39:25;;;;;;;;;;;18.00;93.10;;;;;;5092162;28;20002;-77
2021/09/11 03:41:51;;;;;;;;;;;18.00;93.10;;;;;;5092018;28;20032;-77
2021/09/11 03:44:16;;;;;;;;;;;18.00;93.10;;;;;;5092159;28;19915;-77
2021/09/11 03:46:42;;;;;;;;;;;18.00;93.10;;;;;;5092069;28;20293;-77
2021/09/11 03:49:07;;;;;;;;;;;18.00;93.20;;;;;;5091982;28;19904;-76
2021/09/11 03:51:34;;;;;;;;;;;18.00;93.20;;;;;;5109984;28;19958;-76
2021/09/11 03:54:03;;;;;;;;;;;18.00;93.10;;;;;;5110159;28;19911;-78
2021/09/11 03:56:29;;;;;;;;;;;17.90;93.10;;;;;;5110148;28;19904;-76
2021/09/11 03:58:54;;;;;;;;;;;18.00;93.10;;;;;;5091688;28;19907;-76
2021/09/11 04:01:20;;;;;;;;;;;17.90;93.10;;;;;;5109846;28;19907;-77
2021/09/11 04:03:45;;;;;;;;;;;17.90;93.20;;;;;;5109928;28;19911;-76
2021/09/11 04:06:11;;;;;;;;;;;17.90;93.20;;;;;;5109788;28;19908;-77
2021/09/11 04:08:37;;;;;;;;;;;17.90;93.20;;;;;;5091620;28;19908;-76
2021/09/11 04:11:03;;;;;;;;;;;17.90;93.20;;;;;;5109911;28;19976;-77
2021/09/11 04:13:29;;;;;;;;;;;17.90;93.30;;;;;;5109641;28;19908;-77
2021/09/11 04:15:54;;;;;;;;;;;17.80;93.20;;;;;;5109770;28;19908;-78
2021/09/11 04:18:20;;;;;;;;;;;17.90;93.30;;;;;;5109737;28;19994;-78
2021/09/11 04:20:45;;;;;;;;;;;17.80;93.20;;;;;;5090430;28;20010;-77
2021/09/11 04:23:11;;;;;;;;;;;17.90;93.20;;;;;;5091398;28;19907;-77
2021/09/11 04:25:36;;;;;;;;;;;17.90;93.20;;;;;;5109488;28;19915;-76
2021/09/11 04:28:02;;;;;;;;;;;17.90;93.10;;;;;;5091257;28;19924;-76
2021/09/11 04:30:27;;;;;;;;;;;17.80;93.00;;;;;;5091120;28;19949;-77
2021/09/11 04:32:53;;;;;;;;;;;17.80;93.00;;;;;;5109312;28;20353;-78
2021/09/11 04:35:19;;;;;;;;;;;17.80;93.10;;;;;;5091061;28;19942;-77
2021/09/11 04:37:44;;;;;;;;;;;17.80;93.10;;;;;;5090948;28;20358;-76
2021/09/11 04:40:10;;;;;;;;;;;17.80;93.00;;;;;;5109430;28;19910;-77
2021/09/11 04:42:36;;;;;;;;;;;17.70;93.00;;;;;;5091103;28;19947;-78
2021/09/11 04:45:02;;;;;;;;;;;17.70;93.00;;;;;;5090990;28;19907;-77
2021/09/11 04:47:28;;;;;;;;;;;17.70;93.00;;;;;;5109095;28;19911;-79
2021/09/11 04:49:53;;;;;;;;;;;17.60;93.00;;;;;;5073898;28;20354;-77
2021/09/11 04:52:19;;;;;;;;;;;17.60;93.00;;;;;;5108781;28;19915;-77
2021/09/11 04:54:44;;;;;;;;;;;17.60;93.00;;;;;;5108962;28;19916;-77
2021/09/11 04:57:10;;;;;;;;;;;17.60;93.10;;;;;;5109345;28;20336;-77
2021/09/11 04:59:36;;;;;;;;;;;17.60;93.00;;;;;;5109063;28;20301;-78
2021/09/11 05:02:01;;;;;;;;;;;17.60;93.00;;;;;;5090644;28;19911;-77
2021/09/11 05:04:27;;;;;;;;;;;17.60;93.00;;;;;;5108906;28;19915;-77
2021/09/11 05:06:52;;;;;;;;;;;17.60;93.10;;;;;;5108751;28;19912;-77
2021/09/11 05:09:18;;;;;;;;;;;17.60;93.00;;;;;;5090651;28;19904;-77
2021/09/11 05:11:43;;;;;;;;;;;17.60;93.00;;;;;;5090579;28;20380;-77
2021/09/11 05:14:09;;;;;;;;;;;17.60;93.00;;;;;;5108671;28;20289;-76
2021/09/11 05:16:34;;;;;;;;;;;17.50;93.00;;;;;;5090399;28;19918;-77
2021/09/11 05:19:00;;;;;;;;;;;17.50;93.00;;;;;;5108736;28;19937;-77
2021/09/11 05:21:26;;;;;;;;;;;17.50;93.00;;;;;;5090293;28;19906;-76
2021/09/11 05:23:51;;;;;;;;;;;17.40;93.10;;;;;;5108701;28;19903;-75
2021/09/11 05:26:17;;;;;;;;;;;17.50;93.10;;;;;;5073528;28;19918;-77
2021/09/11 05:28:42;;;;;;;;;;;17.50;93.10;;;;;;5090267;28;20358;-78
2021/09/11 05:31:08;;;;;;;;;;;17.50;93.20;;;;;;5108265;28;20282;-76
2021/09/11 05:33:33;;;;;;;;;;;17.50;93.10;;;;;;5090027;28;19957;-78
2021/09/11 05:35:59;;;;;;;;;;;17.50;93.10;;;;;;5108269;28;19960;-77
2021/09/11 05:38:24;;;;;;;;;;;17.50;93.10;;;;;;5108297;28;19911;-77
2021/09/11 05:40:50;;;;;;;;;;;17.50;93.10;;;;;;5108427;28;20238;-77
2021/09/11 05:43:16;;;;;;;;;;;17.50;93.10;;;;;;5090002;28;20287;-78
2021/09/11 05:45:41;;;;;;;;;;;17.60;93.30;;;;;;5090270;28;19908;-77
2021/09/11 05:48:07;;;;;;;;;;;17.60;93.10;;;;;;5090104;28;19907;-77
2021/09/11 05:50:32;;;;;;;;;;;17.60;93.10;;;;;;5089783;28;19915;-78
2021/09/11 05:52:58;;;;;;;;;;;17.50;93.10;;;;;;5108191;28;19904;-75
2021/09/11 05:55:24;;;;;;;;;;;17.50;93.10;;;;;;5108238;28;19962;-77
2021/09/11 05:57:49;;;;;;;;;;;17.50;93.10;;;;;;5108215;28;20361;-76
2021/09/11 06:00:15;;;;;;;;;;;17.50;93.10;;;;;;5089911;28;19915;-76
2021/09/11 06:02:40;;;;;;;;;;;17.50;93.10;;;;;;5108055;28;19911;-78
2021/09/11 06:05:06;;;;;;;;;;;17.50;93.10;;;;;;5108138;28;20000;-77
2021/09/11 06:07:32;;;;;;;;;;;17.50;93.10;;;;;;5107963;28;20313;-77
2021/09/11 06:09:59;;;;;;;;;;;17.50;93.20;;;;;;5108133;28;19903;-78
2021/09/11 06:12:24;;;;;;;;;;;17.50;93.20;;;;;;5089412;28;19999;-79
2021/09/11 06:14:50;;;;;;;;;;;17.50;93.20;;;;;;5089296;28;20340;-77
2021/09/11 06:17:16;;;;;;;;;;;17.50;93.20;;;;;;5089886;28;19937;-78
2021/09/11 06:19:42;;;;;;;;;;;17.60;93.20;;;;;;5107856;28;19998;-77
2021/09/11 06:22:10;;;;;;;;;;;17.60;93.20;;;;;;5089725;28;20007;-78
2021/09/11 06:24:37;;;;;;;;;;;17.60;93.20;;;;;;5108099;28;19910;-77
2021/09/11 06:27:03;;;;;;;;;;;17.60;93.20;;;;;;5107826;28;19938;-79
2021/09/11 06:29:29;;;;;;;;;;;17.50;93.20;;;;;;5107920;28;20370;-77
2021/09/11 06:31:54;;;;;;;;;;;17.50;93.20;;;;;;5072757;28;19908;-77
2021/09/11 06:34:20;;;;;;;;;;;17.50;93.20;;;;;;5089508;28;20006;-77
2021/09/11 06:36:45;;;;;;;;;;;17.50;93.30;;;;;;5089457;28;19927;-78
2021/09/11 06:39:11;;;;;;;;;;;17.50;93.30;;;;;;5107636;28;20282;-76
2021/09/11 06:41:36;;;;;;;;;;;17.60;93.60;;;;;;5089504;28;19912;-79
2021/09/11 06:44:02;;;;;;;;;;;17.60;93.30;;;;;;5091409;28;19954;-78
2021/09/11 06:46:28;;;;;;;;;;;17.60;93.30;;;;;;5093286;28;19904;-78
2021/09/11 06:48:53;;;;;;;;;;;17.60;93.40;;;;;;5111434;28;20274;-78
2021/09/11 06:51:19;;;;;;;;;;;17.70;93.40;;;;;;5111213;28;19984;-76
2021/09/11 06:53:44;;;;;;;;;;;17.70;93.40;;;;;;5111566;28;20285;-77
2021/09/11 06:56:10;;;;;;;;;;;17.80;93.30;;;;;;5111205;28;19960;-79
2021/09/11 06:58:35;;;;;;;;;;;17.90;93.30;;;;;;5093462;28;19908;-76
2021/09/11 07:01:01;;;;;;;;;;;17.90;93.30;;;;;;5111535;28;19903;-78
2021/09/11 07:03:27;;;;;;;;;;;17.90;93.30;;;;;;5111226;28;19911;-76
2021/09/11 07:05:52;;;;;;;;;;;18.00;93.30;;;;;;5111784;28;20376;-76
2021/09/11 07:08:18;;;;;;;;;;;18.10;93.30;;;;;;5111184;28;20368;-78
2021/09/11 07:10:43;;;;;;;;;;;18.10;93.20;;;;;;5111698;28;19915;-77
2021/09/11 07:13:09;;;;;;;;;;;18.20;93.20;;;;;;5111899;28;20283;-77
2021/09/11 07:15:34;;;;;;;;;;;18.20;93.10;;;;;;5111145;28;19915;-76
2021/09/11 07:18:00;;;;;;;;;;;18.20;93.10;;;;;;5111091;28;20005;-79
2021/09/11 07:20:26;;;;;;;;;;;18.20;93.10;;;;;;5092626;28;19908;-75
2021/09/11 07:22:52;;;;;;;;;;;18.30;93.10;;;;;;5111339;28;19911;-75
2021/09/11 07:25:17;;;;;;;;;;;18.30;93.10;;;;;;5111653;28;19904;-76
2021/09/11 07:27:43;;;;;;;;;;;18.30;93.10;;;;;;5111270;28;19907;-76
2021/09/11 07:30:09;;;;;;;;;;;18.30;93.30;;;;;;5075559;28;19912;-77
2021/09/11 07:32:34;;;;;;;;;;;18.40;93.10;;;;;;5092841;28;19915;-75
2021/09/11 07:35:00;;;;;;;;;;;18.40;93.10;;;;;;5092577;28;20400;-77
2021/09/11 07:37:26;;;;;;;;;;;18.50;93.10;;;;;;5092178;28;19916;-76
2021/09/11 07:39:51;;;;;;;;;;;18.50;93.10;;;;;;5111346;28;19907;-77
2021/09/11 07:42:17;;;;;;;;;;;18.60;93.00;;;;;;5092041;28;19912;-78
2021/09/11 07:44:43;;;;;;;;;;;18.60;93.00;;;;;;5091850;28;20328;-78
2021/09/11 07:47:08;;;;;;;;;;;18.70;93.00;;;;;;5109918;28;19903;-77
2021/09/11 07:49:34;;;;;;;;;;;18.70;93.00;;;;;;5110186;28;20010;-78
2021/09/11 07:51:59;;;;;;;;;;;18.80;93.00;;;;;;5109530;28;19923;-77
2021/09/11 07:54:25;;;;;;;;;;;18.90;93.00;;;;;;5090878;28;20354;-75
2021/09/11 07:56:50;;;;;;;;;;;18.90;93.00;;;;;;5090805;28;19984;-76
2021/09/11 07:59:16;;;;;;;;;;;19.10;92.90;;;;;;5091123;28;20053;-77
2021/09/11 08:01:42;;;;;;;;;;;19.20;92.90;;;;;;5109449;28;20020;-78
2021/09/11 08:04:07;;;;;;;;;;;19.20;92.70;;;;;;5091220;28;19907;-78
2021/09/11 08:06:33;;;;;;;;;;;19.30;92.70;;;;;;5109379;28;20380;-77
2021/09/11 08:08:58;;;;;;;;;;;19.30;92.60;;;;;;5109458;28;19903;-78
2021/09/11 08:11:24;;;;;;;;;;;19.30;92.50;;;;;;5109534;28;19990;-77
2021/09/11 08:13:50;;;;;;;;;;;19.30;92.50;;;;;;5109337;28;19912;-77
2021/09/11 08:16:15;;;;;;;;;;;19.30;92.50;;;;;;5091016;28;19904;-78
2021/09/11 08:18:41;;;;;;;;;;;19.40;92.60;;;;;;5109224;28;19923;-78
2021/09/11 08:21:06;;;;;;;;;;;19.40;92.50;;;;;;5091026;28;19953;-77
2021/09/11 08:23:32;;;;;;;;;;;19.40;92.50;;;;;;5108978;28;19914;-77
2021/09/11 08:25:58;;;;;;;;;;;19.40;92.40;;;;;;5091077;28;19907;-77
2021/09/11 08:28:23;;;;;;;;;;;19.40;92.40;;;;;;5109247;28;19958;-77
2021/09/11 08:30:49;;;;;;;;;;;19.40;92.40;;;;;;5108935;28;20386;-76
2021/09/11 08:33:15;;;;;;;;;;;19.50;92.40;;;;;;5090385;28;19955;-78
2021/09/11 08:35:41;;;;;;;;;;;19.50;92.40;;;;;;5090668;28;19947;-79
2021/09/11 08:38:07;;;;;;;;;;;19.60;92.50;;;;;;5108651;28;20308;-78
2021/09/11 08:40:33;;;;;;;;;;;19.60;92.50;;;;;;5073009;28;19915;-78
2021/09/11 08:42:59;;;;;;;;;;;19.70;92.40;;;;;;5090166;28;19960;-78
2021/09/11 08:45:24;;;;;;;;;;;19.80;92.40;;;;;;5108734;28;19914;-77
2021/09/11 08:47:53;;;;;;;;;;;20.00;92.50;;;;;;5108600;28;20358;-80
2021/09/11 08:50:19;;;;;;;;;;;20.30;92.50;;;;;;5089936;28;19916;-79
2021/09/11 08:52:45;;;;;;;;;;;20.70;92.70;;;;;;5108376;28;20388;-78
2021/09/11 08:55:12;;;;;;;;;;;21.50;92.90;;;;;;5108460;28;19918;-77
2021/09/11 08:57:37;;;;;;;;;;;22.30;92.20;;;;;;5073378;28;19911;-79
2021/09/11 09:00:07;;;;;;;;;;;22.90;91.70;;;;;;5090293;28;19919;-78
2021/09/11 09:02:33;;;;;;;;;;;23.50;91.30;;;;;;5109707;28;19904;-79
2021/09/11 09:04:59;;;;;;;;;;;23.70;90.60;;;;;;5110465;28;19903;-79
2021/09/11 09:07:43;;;;;;;;;;;24.00;91.00;;;;;;5091130;28;20594;-77
2021/09/11 09:10:10;;;;;;;;;;;24.70;90.80;;;;;;5092072;28;20539;-79
2021/09/11 09:12:37;;;;;;;;;;;25.50;90.20;;;;;;5090607;28;20369;-77
2021/09/11 09:15:04;;;;;;;;;;;25.70;89.20;;;;;;5107580;28;19946;-79
2021/09/11 09:17:38;;;;;;;;;;;25.70;88.80;;;;;;5090262;28;20373;-79
2021/09/11 09:20:15;;;;;;;;;;;25.80;88.60;;;;;;5089521;28;19903;-78
2021/09/11 09:22:41;;;;;;;;;;;26.20;88.40;;;;;;5108838;28;19904;-78
2021/09/11 09:25:27;;;;;;;;;;;26.50;87.40;;;;;;5086810;28;19911;-78
2021/09/11 09:27:55;;;;;;;;;;;26.40;85.60;;;;;;5091063;28;19918;-78
2021/09/11 09:30:22;;;;;;;;;;;26.30;86.50;;;;;;5109608;28;19907;-78
2021/09/11 09:32:48;;;;;;;;;;;26.80;87.20;;;;;;5109631;28;19947;-76
2021/09/11 09:35:22;;;;;;;;;;;27.30;86.30;;;;;;5091639;28;19916;-79
2021/09/11 09:37:57;;;;;;;;;;;27.40;84.80;;;;;;5109771;28;20350;-78
2021/09/11 09:40:33;;;;;;;;;;;27.00;83.70;;;;;;5109678;28;19985;-77
2021/09/11 09:42:59;;;;;;;;;;;26.40;83.10;;;;;;5109000;28;19904;-78
2021/09/11 09:45:29;;;;;;;;;;;25.80;83.40;;;;;;5109263;28;19907;-79
2021/09/11 09:48:04;;;;;;;;;;;25.30;84.10;;;;;;5091174;28;20282;-79
2021/09/11 09:50:37;;;;;;;;;;;25.10;85.30;;;;;;5109501;28;19915;-78
2021/09/11 09:53:03;;;;;;;;;;;25.00;85.40;;;;;;5091091;28;19919;-78
2021/09/11 09:55:28;;;;;;;;;;;24.70;85.00;;;;;;5109162;28;19999;-80
2021/09/11 09:57:55;;;;;;;;;;;24.50;85.00;;;;;;5109440;28;19942;-79
2021/09/11 10:00:21;;;;;;;;;;;24.20;84.90;;;;;;5090281;28;19903;-76
2021/09/11 10:02:47;;;;;;;;;;;24.00;84.90;;;;;;5108993;28;20298;-83
2021/09/11 10:05:13;;;;;;;;;;;23.80;85.40;;;;;;5109304;28;20308;-80
2021/09/11 10:07:44;;;;;;;;;;;23.90;85.60;;;;;;5109252;28;19904;-77
2021/09/11 10:10:10;;;;;;;;;;;24.10;85.60;;;;;;5091010;28;19946;-78
2021/09/11 10:12:39;;;;;;;;;;;24.30;85.00;;;;;;5107912;28;19958;-78
2021/09/11 10:15:24;;;;;;;;;;;24.50;83.90;;;;;;5089287;28;19908;-78
2021/09/11 10:17:50;;;;;;;;;;;24.70;83.80;;;;;;5088849;28;19991;-79
2021/09/11 10:20:16;;;;;;;;;;;24.80;83.60;;;;;;5095255;28;19946;-78
2021/09/11 10:23:01;;;;;;;;;;;24.90;82.20;;;;;;5078071;28;20383;-81
2021/09/11 10:25:42;;;;;;;;;;;25.00;82.60;;;;;;5112819;28;19939;-78
2021/09/11 10:28:18;;;;;;;;;;;25.10;82.30;;;;;;5094738;28;19994;-77
2021/09/11 10:31:02;;;;;;;;;;;25.00;82.40;;;;;;5113182;28;19912;-79
2021/09/11 10:33:37;;;;;;;;;;;24.70;82.10;;;;;;5103163;28;19919;-75
2021/09/11 10:36:03;;;;;;;;;;;24.40;82.30;;;;;;5110589;28;20343;-79
2021/09/11 10:38:39;;;;;;;;;;;24.00;81.50;;;;;;5078496;28;20022;-79
2021/09/11 10:41:11;;;;;;;;;;;23.50;81.60;;;;;;5095861;28;19929;-79
2021/09/11 10:43:37;;;;;;;;;;;23.00;82.10;;;;;;5113811;28;19904;-80
2021/09/11 10:46:06;;;;;;;;;;;22.60;82.50;;;;;;5113695;28;19912;-82
2021/09/11 10:48:44;;;;;;;;;;;22.30;82.90;;;;;;5112905;28;20006;-76
2021/09/11 10:51:10;;;;;;;;;;;22.00;83.30;;;;;;5113160;28;19999;-78
2021/09/11 10:53:37;;;;;;;;;;;21.70;83.30;;;;;;5094328;28;19920;-82
2021/09/11 10:56:23;;;;;;;;;;;21.60;83.90;;;;;;5112954;28;19912;-78
2021/09/11 10:59:09;;;;;;;;;;;21.60;84.50;;;;;;5094969;28;19910;-77
2021/09/11 11:01:52;;;;;;;;;;;21.80;85.20;;;;;;5093154;28;19903;-74
2021/09/11 11:04:37;;;;;;;;;;;22.30;86.00;;;;;;5112170;28;20315;-79
2021/09/11 11:07:04;;;;;;;;;;;23.00;86.60;;;;;;5111947;28;19957;-78
2021/09/11 11:09:34;;;;;;;;;;;24.30;87.30;;;;;;5093933;28;19907;-77
2021/09/11 11:11:59;;;;;;;;;;;25.70;85.20;;;;;;5112117;28;19943;-79
2021/09/11 11:14:28;;;;;;;;;;;26.70;85.20;;;;;;5094058;28;19999;-79
2021/09/11 11:16:54;;;;;;;;;;;27.90;86.10;;;;;;5112260;28;19957;-73
2021/09/11 11:19:20;;;;;;;;;;;29.30;85.90;;;;;;5111976;28;19912;-79
2021/09/11 11:22:03;;;;;;;;;;;30.30;84.70;;;;;;5111883;28;19917;-75
2021/09/11 11:24:34;;;;;;;;;;;30.70;83.40;;;;;;5092430;28;19908;-78
2021/09/11 11:27:01;;;;;;;;;;;30.20;78.60;;;;;;5083330;28;19915;-77
2021/09/11 11:29:28;;;;;;;;;;;29.40;77.90;;;;;;5111444;28;20039;-78
2021/09/11 11:31:54;;;;;;;;;;;28.60;76.90;;;;;;5093029;28;19904;-78
2021/09/11 11:34:20;;;;;;;;;;;28.10;77.70;;;;;;5111708;28;19912;-76
2021/09/11 11:36:49;;;;;;;;;;;27.60;78.70;;;;;;5111553;28;20010;-77
2021/09/11 11:39:18;;;;;;;;;;;27.60;78.60;;;;;;5093217;28;20312;-78
2021/09/11 11:41:56;;;;;;;;;;;28.20;80.40;;;;;;5111602;28;20266;-78
2021/09/11 11:44:22;;;;;;;;;;;29.20;78.10;;;;;;5100891;28;19923;-78
2021/09/11 11:46:49;;;;;;;;;;;30.00;76.80;;;;;;5111166;28;19926;-80
2021/09/11 11:49:14;;;;;;;;;;;30.60;74.60;;;;;;5110553;28;19903;-79
2021/09/11 11:51:40;;;;;;;;;;;31.10;74.20;;;;;;5110676;28;20608;-79
2021/09/11 11:54:05;;;;;;;;;;;30.80;72.30;;;;;;5111050;28;19963;-77
2021/09/11 11:56:44;;;;;;;;;;;30.30;72.90;;;;;;5111719;28;19939;-77
2021/09/11 11:59:10;;;;;;;;;;;29.90;72.10;;;;;;5110705;28;19907;-80
2021/09/11 12:01:35;;;;;;;;;;;29.70;70.70;;;;;;5074985;28;20254;-78
2021/09/11 12:04:01;;;;;;;;;;;29.30;70.30;;;;;;5091974;28;19949;-77
2021/09/11 12:06:27;;;;;;;;;;;29.20;70.00;;;;;;5109419;28;19923;-76
2021/09/11 12:08:53;;;;;;;;;;;29.30;71.10;;;;;;5110118;28;20603;-76
2021/09/11 12:11:20;;;;;;;;;;;29.70;70.50;;;;;;5091740;28;19911;-76
2021/09/11 12:13:47;;;;;;;;;;;29.80;69.20;;;;;;5109694;28;20388;-75
2021/09/11 12:16:13;;;;;;;;;;;29.40;67.90;;;;;;5108655;28;19911;-75
2021/09/11 12:18:38;;;;;;;;;;;29.10;68.10;;;;;;5109272;28;20006;-78
2021/09/11 12:21:11;;;;;;;;;;;29.00;68.30;;;;;;5109548;28;19942;-77
2021/09/11 12:23:38;;;;;;;;;;;29.20;69.00;;;;;;5091842;28;19951;-78
2021/09/11 12:26:11;;;;;;;;;;;29.10;69.00;;;;;;5109754;28;19908;-77
2021/09/11 12:28:36;;;;;;;;;;;28.90;67.40;;;;;;5091576;28;20314;-79
2021/09/11 12:31:06;;;;;;;;;;;28.50;67.70;;;;;;5110218;28;19908;-78
2021/09/11 12:33:58;;;;;;;;;;;28.10;67.50;;;;;;5109799;28;19929;-78
2021/09/11 12:36:30;;;;;;;;;;;27.80;68.40;;;;;;5089597;28;19961;-78
2021/09/11 12:38:57;;;;;;;;;;;27.50;69.10;;;;;;5110921;28;19947;-75
2021/09/11 12:41:23;;;;;;;;;;;27.30;69.90;;;;;;5109426;28;19933;-75
2021/09/11 12:43:49;;;;;;;;;;;27.20;70.00;;;;;;5108886;28;19908;-75
2021/09/11 12:46:31;;;;;;;;;;;26.70;69.50;;;;;;5109474;28;19953;-74
2021/09/11 12:48:57;;;;;;;;;;;26.00;69.10;;;;;;5106838;28;19950;-74
2021/09/11 12:51:23;;;;;;;;;;;25.60;69.50;;;;;;5108970;28;19953;-77
2021/09/11 12:53:49;;;;;;;;;;;25.20;69.70;;;;;;5108391;28;19954;-75
2021/09/11 12:56:21;;;;;;;;;;;25.10;69.70;;;;;;5108706;28;19934;-75
2021/09/11 12:58:48;;;;;;;;;;;24.90;69.90;;;;;;5108885;28;19908;-75
2021/09/11 13:01:14;;;;;;;;;;;24.80;69.10;;;;;;5110721;28;19903;-80
2021/09/11 13:03:39;;;;;;;;;;;24.60;69.30;;;;;;5075590;28;19914;-77
2021/09/11 13:06:05;;;;;;;;;;;24.60;69.70;;;;;;5110570;28;20006;-80
2021/09/11 13:08:31;;;;;;;;;;;24.60;70.10;;;;;;5091349;28;20305;-80
2021/09/11 13:10:57;;;;;;;;;;;24.80;70.50;;;;;;5109980;28;19910;-80
2021/09/11 13:13:22;;;;;;;;;;;25.20;70.50;;;;;;5075037;28;19916;-79
2021/09/11 13:15:48;;;;;;;;;;;25.50;70.20;;;;;;5093032;28;19908;-82
2021/09/11 13:18:14;;;;;;;;;;;25.70;69.30;;;;;;5092666;28;19907;-77
2021/09/11 13:20:39;;;;;;;;;;;25.70;69.40;;;;;;5110047;28;19904;-79
2021/09/11 13:23:05;;;;;;;;;;;25.80;69.60;;;;;;5075094;28;19935;-75
2021/09/11 13:25:30;;;;;;;;;;;26.20;70.60;;;;;;5110094;28;19907;-79
2021/09/11 13:27:56;;;;;;;;;;;26.70;70.50;;;;;;5110313;28;19961;-75
2021/09/11 13:30:21;;;;;;;;;;;27.10;70.10;;;;;;5108955;28;19912;-78
2021/09/11 13:32:47;;;;;;;;;;;27.10;69.20;;;;;;5091346;28;19923;-79
2021/09/11 13:35:13;;;;;;;;;;;27.10;69.30;;;;;;5091453;28;19943;-77
2021/09/11 13:37:38;;;;;;;;;;;26.90;69.10;;;;;;5092211;28;19961;-80
2021/09/11 13:40:04;;;;;;;;;;;26.60;69.00;;;;;;5109196;28;19908;-79
2021/09/11 13:42:30;;;;;;;;;;;26.30;68.60;;;;;;5108995;28;20047;-76
2021/09/11 13:44:57;;;;;;;;;;;26.10;68.70;;;;;;5091669;28;19955;-78
2021/09/11 13:47:22;;;;;;;;;;;25.90;69.00;;;;;;5109555;28;19923;-79
2021/09/11 13:49:48;;;;;;;;;;;25.60;68.70;;;;;;5090946;28;19926;-77
2021/09/11 13:52:13;;;;;;;;;;;25.40;68.50;;;;;;5091280;28;19916;-80
2021/09/11 13:54:42;;;;;;;;;;;25.30;68.40;;;;;;5095167;28;20294;-78
2021/09/11 13:57:08;;;;;;;;;;;25.10;67.90;;;;;;5094752;28;19908;-76
2021/09/11 13:59:34;;;;;;;;;;;25.00;67.90;;;;;;5112933;28;19968;-75
2021/09/11 14:01:59;;;;;;;;;;;25.00;67.80;;;;;;5112941;28;19986;-78
2021/09/11 14:04:25;;;;;;;;;;;24.90;67.60;;;;;;5095306;28;19954;-76
2021/09/11 14:06:50;;;;;;;;;;;25.00;68.00;;;;;;5112999;28;19908;-75
2021/09/11 14:09:16;;;;;;;;;;;25.00;67.60;;;;;;5113044;28;19957;-79
2021/09/11 14:11:41;;;;;;;;;;;25.00;67.10;;;;;;5094789;28;20013;-79
2021/09/11 14:14:07;;;;;;;;;;;24.90;67.00;;;;;;5112875;28;19911;-77